Time;durP1;ratioP1;P1;durP2;ratioP2;P2;SDS_P1;SDS_P2;PMS_P1;PMS_P2;Temp;Humidity;BMP_temperature;BMP_pressure;BME280_temperature;BME280_humidity;BME280_pressure;Samples;Min_cycle;Max_cycle;Signal;HPM_P1;HPM_P2
2022/01/09 00:01:24;;;;;;;8.97;6.60;;;1.40;99.90;;;;;;5005071;28;20196;-60
2022/01/09 00:03:50;;;;;;;7.90;6.17;;;1.40;99.90;;;;;;5003652;28;20415;-62
2022/01/09 00:06:16;;;;;;;7.07;5.57;;;1.40;99.90;;;;;;4999286;28;20495;-62
2022/01/09 00:08:44;;;;;;;8.67;5.90;;;1.30;99.90;;;;;;5000177;28;20840;-63
2022/01/09 00:11:10;;;;;;;7.97;5.83;;;1.40;99.90;;;;;;4998158;28;20470;-63
2022/01/09 00:13:35;;;;;;;7.53;6.07;;;1.40;99.90;;;;;;4998225;28;20503;-63
2022/01/09 00:16:01;;;;;;;8.57;6.70;;;1.40;99.90;;;;;;4993601;28;20515;-61
2022/01/09 00:18:27;;;;;;;8.60;5.97;;;1.50;99.90;;;;;;5006782;28;20173;-60
2022/01/09 00:20:52;;;;;;;8.57;6.17;;;1.40;99.90;;;;;;5010954;28;20168;-62
2022/01/09 00:23:18;;;;;;;7.53;6.10;;;1.40;99.90;;;;;;5009941;28;20565;-61
2022/01/09 00:25:43;;;;;;;7.73;5.80;;;1.50;99.90;;;;;;5010751;28;20267;-62
2022/01/09 00:28:09;;;;;;;8.03;5.73;;;2.80;99.90;;;;;;5009528;28;20172;-62
2022/01/09 00:30:34;;;;;;;7.33;6.00;;;1.40;99.90;;;;;;5011093;28;20172;-63
2022/01/09 00:33:00;;;;;;;7.70;5.87;;;1.40;99.90;;;;;;5009578;28;20173;-63
2022/01/09 00:35:26;;;;;;;8.77;6.37;;;1.30;99.90;;;;;;5010447;28;20604;-61
2022/01/09 00:37:52;;;;;;;7.80;5.63;;;1.30;99.90;;;;;;5012326;28;20168;-60
2022/01/09 00:40:19;;;;;;;6.87;5.77;;;1.30;99.90;;;;;;5012278;28;20455;-60
2022/01/09 00:42:44;;;;;;;7.60;6.50;;;1.10;99.90;;;;;;5012205;28;20211;-60
2022/01/09 00:45:11;;;;;;;6.97;5.73;;;1.10;99.90;;;;;;5012038;28;20412;-59
2022/01/09 00:47:37;;;;;;;9.23;6.53;;;1.00;99.90;;;;;;5012035;28;20164;-61
2022/01/09 00:50:03;;;;;;;7.90;6.40;;;1.00;99.90;;;;;;5012363;28;20523;-61
2022/01/09 00:52:29;;;;;;;8.23;6.10;;;1.00;99.90;;;;;;5011660;28;20177;-61
2022/01/09 00:54:54;;;;;;;8.63;6.03;;;0.90;99.90;;;;;;5011488;28;20462;-61
2022/01/09 00:57:20;;;;;;;7.80;6.07;;;0.70;99.90;;;;;;5012042;28;20665;-64
2022/01/09 00:59:45;;;;;;;9.20;6.20;;;0.80;99.90;;;;;;5012122;28;20681;-63
2022/01/09 01:02:11;;;;;;;6.93;5.83;;;0.80;99.90;;;;;;5011998;28;20197;-61
2022/01/09 01:04:38;;;;;;;9.20;6.73;;;0.90;99.90;;;;;;5011703;28;20264;-62
2022/01/09 01:07:04;;;;;;;7.23;5.60;;;0.80;99.90;;;;;;5011911;28;20279;-62
2022/01/09 01:09:31;;;;;;;6.73;5.30;;;1.30;99.90;;;;;;5011128;28;21183;-61
2022/01/09 01:12:00;;;;;;;9.00;6.27;;;0.80;99.90;;;;;;5012128;28;20407;-60
2022/01/09 01:14:27;;;;;;;7.50;6.10;;;0.90;99.90;;;;;;5011477;28;20454;-61
2022/01/09 01:16:54;;;;;;;8.27;6.27;;;0.90;99.90;;;;;;5011867;28;20423;-61
2022/01/09 01:19:20;;;;;;;6.77;5.47;;;1.00;99.90;;;;;;5011891;28;20446;-60
2022/01/09 01:21:46;;;;;;;7.60;6.00;;;1.10;99.90;;;;;;5011778;28;20448;-58
2022/01/09 01:24:12;;;;;;;7.10;5.73;;;1.10;99.90;;;;;;5011610;28;20625;-64
2022/01/09 01:26:37;;;;;;;7.17;5.70;;;1.20;99.90;;;;;;5011745;28;20188;-62
2022/01/09 01:29:03;;;;;;;6.67;5.20;;;1.30;99.90;;;;;;5011777;28;20188;-61
2022/01/09 01:31:29;;;;;;;7.63;6.27;;;1.40;99.90;;;;;;5011755;28;20168;-61
2022/01/09 01:33:54;;;;;;;7.63;6.33;;;1.40;99.90;;;;;;5011702;28;20939;-61
2022/01/09 01:36:20;;;;;;;7.33;5.93;;;1.30;99.90;;;;;;5011303;28;20215;-61
2022/01/09 01:38:46;;;;;;;7.80;5.67;;;1.30;99.90;;;;;;5011689;28;20235;-61
2022/01/09 01:41:11;;;;;;;7.17;5.87;;;1.30;99.90;;;;;;5011714;28;20654;-64
2022/01/09 01:43:37;;;;;;;7.37;5.77;;;1.20;99.90;;;;;;5011095;28;20176;-61
2022/01/09 01:46:03;;;;;;;7.87;5.90;;;1.10;99.90;;;;;;5011134;28;20185;-62
2022/01/09 01:48:30;;;;;;;6.80;5.83;;;1.20;99.90;;;;;;5011691;28;20169;-63
2022/01/09 01:50:56;;;;;;;8.33;6.30;;;1.10;99.90;;;;;;5011614;28;20165;-62
2022/01/09 01:53:23;;;;;;;9.90;5.73;;;1.10;99.90;;;;;;5011358;28;20516;-63
2022/01/09 01:55:53;;;;;;;7.07;5.90;;;1.10;99.90;;;;;;5011275;28;20189;-61
2022/01/09 01:58:20;;;;;;;9.50;5.97;;;1.00;99.90;;;;;;5011575;28;20784;-61
2022/01/09 02:00:46;;;;;;;8.87;6.10;;;0.90;99.90;;;;;;5011655;28;20407;-61
2022/01/09 02:03:11;;;;;;;8.23;5.80;;;0.90;99.90;;;;;;5011657;28;20513;-63
2022/01/09 02:05:40;;;;;;;9.00;6.70;;;1.00;99.90;;;;;;5011365;28;20247;-60
2022/01/09 02:08:07;;;;;;;7.57;5.80;;;1.00;99.90;;;;;;5011426;28;20173;-63
2022/01/09 02:10:32;;;;;;;6.93;5.73;;;1.00;99.90;;;;;;5010252;28;20422;-61
2022/01/09 02:12:58;;;;;;;9.40;6.20;;;1.00;99.90;;;;;;5011495;28;20407;-63
2022/01/09 02:15:47;;;;;;;8.57;6.00;;;1.00;99.90;;;;;;5011193;28;20200;-63
2022/01/09 02:18:21;;;;;;;7.93;6.47;;;1.10;99.90;;;;;;5011181;28;20189;-60
2022/01/09 02:20:48;;;;;;;9.87;6.00;;;1.10;99.90;;;;;;5013196;28;20196;-61
2022/01/09 02:23:15;;;;;;;7.20;5.87;;;1.10;99.90;;;;;;5014687;28;20454;-62
2022/01/09 02:25:42;;;;;;;7.67;6.00;;;1.10;99.90;;;;;;5014579;28;20490;-63
2022/01/09 02:28:09;;;;;;;8.67;6.10;;;1.20;99.90;;;;;;5014652;28;20957;-63
2022/01/09 02:30:35;;;;;;;8.97;6.73;;;1.40;99.90;;;;;;5014681;28;20770;-62
2022/01/09 02:33:05;;;;;;;8.27;6.50;;;1.50;99.90;;;;;;5014783;28;20774;-61
2022/01/09 02:35:31;;;;;;;8.53;6.43;;;1.50;99.90;;;;;;5013985;28;20443;-63
2022/01/09 02:37:57;;;;;;;10.23;6.33;;;1.50;99.90;;;;;;5014570;28;20494;-62
2022/01/09 02:40:23;;;;;;;7.07;5.93;;;1.60;99.90;;;;;;5013807;28;20490;-61
2022/01/09 02:42:53;;;;;;;8.20;6.37;;;1.60;99.90;;;;;;5014606;28;20592;-65
2022/01/09 02:45:22;;;;;;;9.23;6.53;;;1.60;99.90;;;;;;5013908;28;20431;-61
2022/01/09 02:47:53;;;;;;;8.00;6.40;;;1.70;99.90;;;;;;5014494;28;20487;-61
2022/01/09 02:52:54;;;;;;;7.70;6.60;;;1.70;99.90;;;;;;5014406;28;20544;-62
2022/01/09 02:55:21;;;;;;;7.77;6.43;;;1.70;99.90;;;;;;5013791;28;21003;-63
2022/01/09 02:57:49;;;;;;;7.63;6.67;;;1.80;99.90;;;;;;5012915;28;20442;-62
2022/01/09 03:00:19;;;;;;;7.53;6.07;;;1.80;99.90;;;;;;5012939;28;20544;-59
2022/01/09 03:02:45;;;;;;;9.43;6.50;;;1.90;99.90;;;;;;5014091;28;20685;-61
2022/01/09 03:05:12;;;;;;;8.30;6.20;;;1.90;99.90;;;;;;5013584;28;20227;-62
2022/01/09 03:07:39;;;;;;;7.40;5.97;;;2.00;99.90;;;;;;5013947;28;20173;-61
2022/01/09 03:10:06;;;;;;;7.47;6.07;;;2.10;99.90;;;;;;5013546;28;20423;-63
2022/01/09 03:12:32;;;;;;;7.77;6.07;;;2.10;99.90;;;;;;5013882;28;20455;-63
2022/01/09 03:14:57;;;;;;;9.07;6.37;;;2.20;99.90;;;;;;5013643;28;20621;-59
2022/01/09 03:17:23;;;;;;;8.23;6.10;;;2.30;99.90;;;;;;5013933;28;20184;-62
2022/01/09 03:19:48;;;;;;;7.53;6.37;;;2.30;99.90;;;;;;5013860;28;20184;-61
2022/01/09 03:22:14;;;;;;;8.00;6.73;;;2.30;99.90;;;;;;5013479;28;20824;-61
2022/01/09 03:24:40;;;;;;;7.53;6.07;;;2.40;99.90;;;;;;5013495;28;20202;-63
2022/01/09 03:27:05;;;;;;;8.63;5.87;;;2.40;99.90;;;;;;5013441;28;20192;-63
2022/01/09 03:29:31;;;;;;;7.57;6.07;;;2.50;99.90;;;;;;5013808;28;20803;-62
2022/01/09 03:31:57;;;;;;;6.80;6.03;;;2.50;99.90;;;;;;5012527;28;20192;-63
2022/01/09 03:34:23;;;;;;;7.60;5.57;;;2.50;99.90;;;;;;5013263;28;20173;-63
2022/01/09 03:36:48;;;;;;;6.70;5.57;;;2.50;99.90;;;;;;5013385;28;20208;-62
2022/01/09 03:39:14;;;;;;;8.13;5.67;;;2.50;99.90;;;;;;5013260;28;20179;-61
2022/01/09 03:41:40;;;;;;;5.53;4.93;;;2.50;99.90;;;;;;5013466;28;20215;-63
2022/01/09 03:44:05;;;;;;;6.00;5.00;;;2.50;99.90;;;;;;5012891;28;20165;-64
2022/01/09 03:46:31;;;;;;;6.10;5.10;;;2.50;99.90;;;;;;5013329;28;20192;-63
2022/01/09 03:48:57;;;;;;;7.57;5.00;;;2.60;99.90;;;;;;5013105;28;20172;-64
2022/01/09 03:51:25;;;;;;;6.63;5.47;;;2.60;99.90;;;;;;5013252;28;20259;-61
2022/01/09 03:53:51;;;;;;;6.37;5.53;;;2.60;99.90;;;;;;5012974;28;20176;-62
2022/01/09 03:56:17;;;;;;;7.53;5.77;;;2.60;99.90;;;;;;5011358;28;20200;-63
2022/01/09 03:58:43;;;;;;;7.87;5.30;;;2.60;99.90;;;;;;5011785;28;20549;-62
2022/01/09 04:01:09;;;;;;;9.80;6.13;;;2.60;99.90;;;;;;5011787;28;20196;-60
2022/01/09 04:03:35;;;;;;;9.07;6.17;;;2.60;99.90;;;;;;5012179;28;20642;-61
2022/01/09 04:06:02;;;;;;;7.77;5.60;;;2.70;99.90;;;;;;5012547;28;20192;-63
2022/01/09 04:08:28;;;;;;;7.37;5.10;;;2.60;99.90;;;;;;5012825;28;20534;-63
2022/01/09 04:10:54;;;;;;;7.83;5.50;;;2.50;99.90;;;;;;5012575;28;20176;-61
2022/01/09 04:13:20;;;;;;;7.23;5.77;;;2.20;99.90;;;;;;5012746;28;20173;-61
2022/01/09 04:15:48;;;;;;;6.00;5.10;;;2.20;99.90;;;;;;5011975;28;20204;-63
2022/01/09 04:18:16;;;;;;;6.37;5.40;;;2.10;99.90;;;;;;5012760;28;20172;-63
2022/01/09 04:20:42;;;;;;;7.10;5.40;;;2.10;99.90;;;;;;5012579;28;20175;-63
2022/01/09 04:23:07;;;;;;;5.67;5.07;;;2.20;99.90;;;;;;5012573;28;20200;-63
2022/01/09 04:25:33;;;;;;;6.43;5.07;;;2.20;99.90;;;;;;5012156;28;20378;-63
2022/01/09 04:27:59;;;;;;;6.30;4.87;;;2.20;99.90;;;;;;5012649;28;20315;-62
2022/01/09 04:30:25;;;;;;;7.80;6.00;;;2.30;99.90;;;;;;5012578;28;20171;-63
2022/01/09 04:32:50;;;;;;;7.17;5.33;;;2.40;99.90;;;;;;5012593;28;20259;-63
2022/01/09 04:35:16;;;;;;;6.47;5.30;;;2.40;99.90;;;;;;5011919;28;20544;-65
2022/01/09 04:37:42;;;;;;;6.30;5.03;;;2.30;99.90;;;;;;5013581;28;20180;-62
2022/01/09 04:40:10;;;;;;;6.93;5.40;;;2.20;99.90;;;;;;5013059;28;20537;-63
2022/01/09 04:42:45;;;;;;;7.10;5.40;;;2.20;99.90;;;;;;5012219;28;20200;-62
2022/01/09 04:45:13;;;;;;;7.30;5.33;;;2.30;99.90;;;;;;5012163;28;20663;-61
2022/01/09 04:47:42;;;;;;;6.63;5.83;;;2.40;99.90;;;;;;5012101;28;20161;-62
2022/01/09 04:50:12;;;;;;;5.97;5.10;;;2.50;99.90;;;;;;5012265;28;20164;-59
2022/01/09 04:52:39;;;;;;;6.17;5.20;;;2.40;99.90;;;;;;5012202;28;20661;-60
2022/01/09 04:55:05;;;;;;;7.37;5.77;;;2.40;99.90;;;;;;5011972;28;20192;-63
2022/01/09 04:57:31;;;;;;;6.97;5.60;;;2.40;99.90;;;;;;5011958;28;20196;-61
2022/01/09 04:59:56;;;;;;;7.57;5.13;;;2.40;99.90;;;;;;5012249;28;20541;-60
2022/01/09 05:02:22;;;;;;;7.23;5.40;;;2.50;99.90;;;;;;5011950;28;20230;-63
2022/01/09 05:04:47;;;;;;;6.27;5.27;;;2.50;99.90;;;;;;5011720;28;20196;-62
2022/01/09 05:07:13;;;;;;;7.23;5.40;;;2.30;99.90;;;;;;5011973;28;20279;-63
2022/01/09 05:09:38;;;;;;;7.30;5.67;;;2.10;99.90;;;;;;5011871;28;20172;-60
2022/01/09 05:12:04;;;;;;;6.43;5.27;;;2.00;99.90;;;;;;5012120;28;20173;-59
2022/01/09 05:14:30;;;;;;;6.70;5.60;;;2.00;99.90;;;;;;5011619;28;20247;-61
2022/01/09 05:16:55;;;;;;;6.13;5.17;;;2.10;99.90;;;;;;5011964;28;20204;-61
2022/01/09 05:19:28;;;;;;;7.40;5.43;;;2.10;99.90;;;;;;5011665;28;20180;-61
2022/01/09 05:21:54;;;;;;;6.93;5.53;;;2.10;99.90;;;;;;5011858;28;20207;-59
2022/01/09 05:24:20;;;;;;;6.63;5.67;;;2.00;99.90;;;;;;5011572;28;20225;-61
2022/01/09 05:26:45;;;;;;;8.13;5.77;;;2.10;99.90;;;;;;5011828;28;20689;-59
2022/01/09 05:29:11;;;;;;;7.67;6.03;;;2.10;99.90;;;;;;5011695;28;20195;-61
2022/01/09 05:31:38;;;;;;;7.27;5.17;;;2.10;99.90;;;;;;5011783;28;20180;-60
2022/01/09 05:34:04;;;;;;;8.33;6.20;;;2.20;99.90;;;;;;5011412;28;20168;-59
2022/01/09 05:36:29;;;;;;;7.07;5.50;;;2.30;99.90;;;;;;5011559;28;20219;-60
2022/01/09 05:38:55;;;;;;;7.53;5.93;;;2.20;99.90;;;;;;5011806;28;20171;-62
2022/01/09 05:41:21;;;;;;;7.80;6.27;;;2.00;99.90;;;;;;5011606;28;20299;-63
2022/01/09 05:43:47;;;;;;;8.33;5.73;;;2.00;99.90;;;;;;5011674;28;20534;-59
2022/01/09 05:46:13;;;;;;;7.17;6.13;;;2.00;99.90;;;;;;5010954;28;20193;-63
2022/01/09 05:48:38;;;;;;;7.80;6.03;;;2.10;99.90;;;;;;5011570;28;20546;-60
2022/01/09 05:51:04;;;;;;;8.37;6.33;;;2.20;99.90;;;;;;5011591;28;20634;-61
2022/01/09 05:53:29;;;;;;;7.50;6.03;;;2.30;99.90;;;;;;5011879;28;20202;-60
2022/01/09 05:55:55;;;;;;;8.17;5.50;;;2.20;99.90;;;;;;5013226;28;20200;-59
2022/01/09 05:58:20;;;;;;;6.17;4.90;;;2.20;99.90;;;;;;5015283;28;20548;-60
2022/01/09 06:00:46;;;;;;;5.77;5.07;;;2.20;99.90;;;;;;5015168;28;20176;-63
2022/01/09 06:03:11;;;;;;;6.03;4.80;;;2.30;99.90;;;;;;5015058;28;20558;-60
2022/01/09 06:05:37;;;;;;;6.23;5.00;;;2.20;99.90;;;;;;5014826;28;20707;-59
2022/01/09 06:08:03;;;;;;;6.03;4.60;;;2.10;99.90;;;;;;5014849;28;20169;-62
2022/01/09 06:10:28;;;;;;;5.63;4.40;;;2.20;99.90;;;;;;5015201;28;20239;-62
2022/01/09 06:12:54;;;;;;;6.73;4.63;;;2.20;99.90;;;;;;5015021;28;20183;-60
2022/01/09 06:15:19;;;;;;;5.70;4.53;;;2.30;99.90;;;;;;5014774;28;20311;-58
2022/01/09 06:17:45;;;;;;;6.53;4.97;;;2.30;99.90;;;;;;5014773;28;20179;-62
2022/01/09 06:20:14;;;;;;;5.13;4.30;;;2.30;99.90;;;;;;5014884;28;20227;-62
2022/01/09 06:22:41;;;;;;;4.83;4.33;;;2.30;99.90;;;;;;5014745;28;20692;-63
2022/01/09 06:25:07;;;;;;;5.13;4.20;;;2.20;99.90;;;;;;5014732;28;20255;-60
2022/01/09 06:27:33;;;;;;;5.47;4.43;;;2.20;99.90;;;;;;5014665;28;20255;-62
2022/01/09 06:29:59;;;;;;;5.73;4.37;;;2.30;99.90;;;;;;5014900;28;20177;-61
2022/01/09 06:32:25;;;;;;;5.30;4.20;;;2.30;99.90;;;;;;5014625;28;20208;-60
2022/01/09 06:34:51;;;;;;;5.37;3.97;;;2.20;99.90;;;;;;5014359;28;20169;-63
2022/01/09 06:37:16;;;;;;;6.70;4.60;;;2.20;99.90;;;;;;5014493;28;20242;-62
2022/01/09 06:39:43;;;;;;;4.30;3.70;;;2.30;99.90;;;;;;5014641;28;20271;-58
2022/01/09 06:42:09;;;;;;;5.17;3.87;;;2.30;99.90;;;;;;5014419;28;20282;-63
2022/01/09 06:44:35;;;;;;;4.87;4.03;;;2.30;99.90;;;;;;5014001;28;20180;-59
2022/01/09 06:47:01;;;;;;;5.77;4.30;;;2.30;99.90;;;;;;5014060;28;20199;-62
2022/01/09 06:49:26;;;;;;;4.37;3.60;;;2.30;99.90;;;;;;5014236;28;20247;-61
2022/01/09 06:51:52;;;;;;;4.73;3.57;;;2.10;99.90;;;;;;5014306;28;20175;-62
2022/01/09 06:54:17;;;;;;;8.33;6.77;;;2.00;99.90;;;;;;5013767;28;20252;-58
2022/01/09 06:56:43;;;;;;;7.30;6.37;;;2.00;99.90;;;;;;5014141;28;20251;-60
2022/01/09 06:59:09;;;;;;;6.30;4.90;;;2.10;99.90;;;;;;5014101;28;20173;-61
2022/01/09 07:01:34;;;;;;;4.87;4.33;;;2.20;99.90;;;;;;5014118;28;20203;-62
2022/01/09 07:04:00;;;;;;;5.73;4.40;;;2.30;99.90;;;;;;5014236;28;20173;-63
2022/01/09 07:06:25;;;;;;;8.00;6.80;;;2.50;99.90;;;;;;5013852;28;20222;-63
2022/01/09 07:08:51;;;;;;;6.40;5.17;;;2.50;99.90;;;;;;5014099;28;20177;-62
2022/01/09 07:11:17;;;;;;;6.37;5.77;;;2.50;99.90;;;;;;5013774;28;20258;-63
2022/01/09 07:13:42;;;;;;;5.37;4.53;;;2.50;99.90;;;;;;5014047;28;20178;-63
2022/01/09 07:16:08;;;;;;;6.23;3.87;;;2.50;99.90;;;;;;5013309;28;20892;-61
2022/01/09 07:18:33;;;;;;;5.97;4.50;;;2.40;99.90;;;;;;5013972;28;20199;-61
2022/01/09 07:20:59;;;;;;;7.17;4.50;;;2.40;99.90;;;;;;5013652;28;20168;-63
2022/01/09 07:23:24;;;;;;;4.00;3.30;;;2.50;99.90;;;;;;5013744;28;20205;-62
2022/01/09 07:25:50;;;;;;;5.40;3.90;;;2.40;99.90;;;;;;5011837;28;20195;-61
2022/01/09 07:28:16;;;;;;;4.80;4.10;;;2.40;99.90;;;;;;5013525;28;20165;-64
2022/01/09 07:30:42;;;;;;;4.70;3.90;;;2.50;99.90;;;;;;5013537;28;20179;-61
2022/01/09 07:33:07;;;;;;;5.20;4.13;;;2.60;99.90;;;;;;5013391;28;20201;-61
2022/01/09 07:35:34;;;;;;;4.57;4.00;;;2.50;99.90;;;;;;5013179;28;20204;-62
2022/01/09 07:37:59;;;;;;;4.63;3.90;;;2.80;99.90;;;;;;5013343;28;20168;-63
2022/01/09 07:40:25;;;;;;;7.07;4.57;;;2.30;99.90;;;;;;5013650;28;20173;-63
2022/01/09 07:42:51;;;;;;;5.60;3.70;;;2.20;99.90;;;;;;5012826;28;20199;-63
2022/01/09 07:45:19;;;;;;;4.57;3.70;;;2.30;99.90;;;;;;5012896;28;20180;-63
2022/01/09 07:47:45;;;;;;;4.57;3.60;;;2.30;99.90;;;;;;5013158;28;20168;-63
2022/01/09 07:50:11;;;;;;;4.67;3.90;;;2.40;99.90;;;;;;5013414;28;20541;-63
2022/01/09 07:52:38;;;;;;;4.70;3.70;;;2.50;99.90;;;;;;5013007;28;20207;-63
2022/01/09 07:55:05;;;;;;;4.73;3.60;;;2.60;99.90;;;;;;5012371;28;20260;-61
2022/01/09 07:57:31;;;;;;;4.43;3.93;;;2.60;99.90;;;;;;5013082;28;20654;-61
2022/01/09 07:59:57;;;;;;;4.40;3.97;;;2.70;99.90;;;;;;5013232;28;20180;-61
2022/01/09 08:02:23;;;;;;;4.93;4.10;;;2.80;99.90;;;;;;5013259;28;20251;-59
2022/01/09 08:04:49;;;;;;;4.30;3.80;;;2.90;99.90;;;;;;5012453;28;20168;-61
2022/01/09 08:07:15;;;;;;;5.47;4.00;;;2.80;99.90;;;;;;5012898;28;20200;-61
2022/01/09 08:09:42;;;;;;;4.40;4.00;;;2.80;99.90;;;;;;5011655;28;20176;-63
2022/01/09 08:12:10;;;;;;;4.93;4.20;;;2.80;99.90;;;;;;5012941;28;20243;-60
2022/01/09 08:14:40;;;;;;;4.90;4.13;;;2.90;99.90;;;;;;5012410;28;20172;-61
2022/01/09 08:17:05;;;;;;;4.63;3.80;;;3.00;99.90;;;;;;5012661;28;20196;-61
2022/01/09 08:19:31;;;;;;;4.53;3.83;;;3.10;99.90;;;;;;5012002;28;20176;-61
2022/01/09 08:21:58;;;;;;;5.70;4.00;;;3.20;99.90;;;;;;5012860;28;20207;-63
2022/01/09 08:24:24;;;;;;;4.80;4.03;;;3.20;99.90;;;;;;5012216;28;20168;-60
2022/01/09 08:26:49;;;;;;;5.87;4.20;;;3.30;99.90;;;;;;5011289;28;20192;-62
2022/01/09 08:29:15;;;;;;;6.80;5.40;;;3.30;99.90;;;;;;5012589;28;20223;-61
2022/01/09 08:31:42;;;;;;;6.20;5.10;;;3.40;99.90;;;;;;5012705;28;20216;-60
2022/01/09 08:34:08;;;;;;;4.73;4.23;;;3.40;99.90;;;;;;5012321;28;20184;-58
2022/01/09 08:36:34;;;;;;;5.27;4.20;;;3.50;99.90;;;;;;5012229;28;20616;-63
2022/01/09 08:39:00;;;;;;;5.13;4.10;;;3.50;99.90;;;;;;5012508;28;20177;-62
2022/01/09 08:41:25;;;;;;;6.03;4.70;;;3.40;99.90;;;;;;5012194;28;20175;-59
2022/01/09 08:43:51;;;;;;;5.77;4.63;;;3.30;99.90;;;;;;5012356;28;20169;-60
2022/01/09 08:46:17;;;;;;;6.03;5.17;;;3.30;99.90;;;;;;5011689;28;20219;-61
2022/01/09 08:48:42;;;;;;;7.70;5.27;;;3.20;99.90;;;;;;5012126;28;20169;-60
2022/01/09 08:51:08;;;;;;;5.80;4.90;;;3.10;99.90;;;;;;5010862;28;20172;-60
2022/01/09 08:53:35;;;;;;;7.40;4.97;;;3.00;99.90;;;;;;5012391;28;20661;-61
2022/01/09 08:56:05;;;;;;;5.30;4.13;;;3.10;99.90;;;;;;5011727;28;20566;-62
2022/01/09 08:58:32;;;;;;;5.57;4.00;;;3.10;99.90;;;;;;5012143;28;20168;-61
2022/01/09 09:00:58;;;;;;;5.07;3.70;;;3.10;99.90;;;;;;5012228;28;20171;-63
2022/01/09 09:03:24;;;;;;;3.70;3.30;;;3.10;99.90;;;;;;5011827;28;20216;-63
2022/01/09 09:05:50;;;;;;;3.97;3.43;;;3.00;99.90;;;;;;5011754;28;20188;-59
2022/01/09 09:08:15;;;;;;;4.23;3.70;;;2.90;99.90;;;;;;5011788;28;20172;-58
2022/01/09 09:10:41;;;;;;;4.80;3.83;;;3.00;99.90;;;;;;5012087;28;20566;-61
2022/01/09 09:13:07;;;;;;;5.90;4.00;;;3.00;99.90;;;;;;5011778;28;20187;-63
2022/01/09 09:15:32;;;;;;;5.97;3.90;;;2.90;99.90;;;;;;4993973;28;20243;-62
2022/01/09 09:17:58;;;;;;;5.53;4.33;;;2.80;99.90;;;;;;5011718;28;20168;-61
2022/01/09 09:20:24;;;;;;;5.30;4.40;;;2.70;99.90;;;;;;5011968;28;20171;-61
2022/01/09 09:22:50;;;;;;;5.00;4.50;;;2.60;99.90;;;;;;5011806;28;20192;-63
2022/01/09 09:25:16;;;;;;;5.13;4.13;;;2.70;99.90;;;;;;5011502;28;20672;-62
2022/01/09 09:27:42;;;;;;;5.90;3.90;;;2.70;99.90;;;;;;5011799;28;20177;-61
2022/01/09 09:30:10;;;;;;;5.73;4.20;;;2.80;99.90;;;;;;5012702;28;20175;-61
2022/01/09 09:32:36;;;;;;;6.00;4.50;;;2.80;99.90;;;;;;5015867;28;20556;-62
2022/01/09 09:35:03;;;;;;;5.37;4.63;;;2.70;99.90;;;;;;5013842;28;20715;-62
2022/01/09 09:37:29;;;;;;;5.27;4.50;;;2.80;99.90;;;;;;5007120;28;20626;-57
2022/01/09 09:39:55;;;;;;;5.73;4.33;;;3.00;99.90;;;;;;5006884;28;20172;-62
2022/01/09 09:42:21;;;;;;;6.60;5.40;;;3.00;99.90;;;;;;5004388;28;20288;-61
2022/01/09 09:44:46;;;;;;;7.80;6.03;;;3.10;99.90;;;;;;5003961;28;20251;-62
2022/01/09 09:47:13;;;;;;;6.07;5.20;;;3.00;99.90;;;;;;5006658;28;20200;-61
2022/01/09 09:49:38;;;;;;;11.70;8.63;;;2.90;99.90;;;;;;5014455;28;20255;-63
2022/01/09 09:52:06;;;;;;;5.47;4.63;;;2.80;99.90;;;;;;5016967;28;20285;-59
2022/01/09 09:54:32;;;;;;;6.77;4.93;;;2.70;99.90;;;;;;5016182;28;20653;-61
2022/01/09 09:56:58;;;;;;;7.97;5.30;;;2.70;99.90;;;;;;5014980;28;20207;-62
2022/01/09 09:59:34;;;;;;;7.10;5.10;;;2.70;99.90;;;;;;5015052;28;20177;-62
2022/01/09 10:01:59;;;;;;;7.20;5.33;;;2.50;99.90;;;;;;5015160;28;20680;-61
2022/01/09 10:04:25;;;;;;;8.10;5.03;;;2.40;99.90;;;;;;5015057;28;20173;-61
2022/01/09 10:06:51;;;;;;;6.77;5.50;;;2.30;99.90;;;;;;5014797;28;20184;-61
2022/01/09 10:09:21;;;;;;;6.90;5.33;;;2.90;99.90;;;;;;5015083;28;20199;-60
2022/01/09 10:11:56;;;;;;;5.30;4.80;;;2.30;99.90;;;;;;5014655;28;20188;-58
2022/01/09 10:14:31;;;;;;;6.23;5.40;;;2.40;99.90;;;;;;5014792;28;20218;-63
2022/01/09 10:17:11;;;;;;;6.47;5.33;;;2.70;99.90;;;;;;5014640;28;20599;-60
2022/01/09 10:19:50;;;;;;;5.40;4.57;;;3.00;99.90;;;;;;5014850;28;20204;-60
2022/01/09 10:22:37;;;;;;;5.70;4.13;;;3.20;99.90;;;;;;5014597;28;20204;-59
2022/01/09 10:25:25;;;;;;;5.90;4.03;;;3.10;99.90;;;;;;5014468;28;20172;-62
2022/01/09 10:28:01;;;;;;;6.07;4.30;;;3.10;99.90;;;;;;5014679;28;20212;-60
2022/01/09 10:30:39;;;;;;;4.23;3.83;;;2.90;99.90;;;;;;5014901;28;20173;-62
2022/01/09 10:33:10;;;;;;;4.40;3.80;;;2.70;99.90;;;;;;5014599;28;20168;-61
2022/01/09 10:35:38;;;;;;;4.53;3.87;;;2.60;99.90;;;;;;5014259;28;20211;-61
2022/01/09 10:38:05;;;;;;;5.70;4.27;;;2.40;99.90;;;;;;5024164;23;20224;-55
2022/01/09 10:40:33;;;;;;;4.00;3.60;;;2.30;99.90;;;;;;5012851;28;20642;-53
2022/01/09 10:43:08;;;;;;;5.60;3.97;;;2.30;99.90;;;;;;4994456;28;20270;-50
2022/01/09 10:45:44;;;;;;;9.27;4.10;;;2.30;99.90;;;;;;5007234;28;20199;-51
2022/01/09 10:48:18;;;;;;;4.47;3.77;;;2.20;99.90;;;;;;4990897;28;20194;-50
2022/01/09 10:50:45;;;;;;;3.50;3.10;;;2.20;99.90;;;;;;4984738;28;20534;-54
2022/01/09 10:53:23;;;;;;;4.40;3.30;;;2.20;99.90;;;;;;4966157;28;20169;-55
2022/01/09 10:56:12;;;;;;;4.93;2.87;;;2.20;99.90;;;;;;4986786;28;20224;-54
2022/01/09 10:58:39;;;;;;;3.63;2.73;;;2.30;99.90;;;;;;4984047;28;20188;-53
2022/01/09 11:01:17;;;;;;;2.90;2.50;;;2.30;99.90;;;;;;4985127;28;20294;-52
2022/01/09 11:03:49;;;;;;;2.10;1.90;;;2.40;99.90;;;;;;4992898;28;20682;-54
2022/01/09 11:06:15;;;;;;;2.70;2.27;;;2.50;99.90;;;;;;4991532;28;20659;-50
2022/01/09 11:08:41;;;;;;;3.63;2.40;;;2.50;99.90;;;;;;4994025;28;20169;-56
2022/01/09 11:11:16;;;;;;;3.17;2.27;;;2.40;99.90;;;;;;4993946;28;20180;-50
2022/01/09 11:13:44;;;;;;;2.77;1.97;;;2.40;99.90;;;;;;4989529;28;20260;-52
2022/01/09 11:19:01;;;;;;;3.83;1.80;;;2.50;99.90;;;;;;4992474;28;20312;-55
2022/01/09 11:21:27;;;;;;;3.73;2.00;;;2.50;99.90;;;;;;4993694;28;20529;-51
2022/01/09 11:23:59;;;;;;;2.90;1.90;;;2.60;99.90;;;;;;4976401;28;20170;-49
2022/01/09 11:26:44;;;;;;;2.77;1.90;;;2.60;99.90;;;;;;4975916;28;20256;-52
2022/01/09 11:29:14;;;;;;;2.23;1.47;;;2.60;99.90;;;;;;4976071;28;20205;-52
2022/01/09 11:32:18;;;;;;;1.50;1.40;;;2.70;99.90;;;;;;4993614;28;20658;-51
2022/01/09 11:34:59;;;;;;;1.50;1.40;;;2.80;99.90;;;;;;4992330;28;20173;-49
2022/01/09 11:37:25;;;;;;;2.80;1.60;;;2.90;99.90;;;;;;4992323;28;20248;-52
2022/01/09 11:39:51;;;;;;;1.50;1.40;;;3.00;99.90;;;;;;4993511;28;20201;-52
2022/01/09 11:42:17;;;;;;;2.03;1.50;;;3.00;99.90;;;;;;4993240;28;20189;-54
2022/01/09 11:44:53;;;;;;;1.60;1.50;;;3.10;99.90;;;;;;4993186;28;20208;-53
2022/01/09 11:47:19;;;;;;;1.40;1.30;;;3.00;99.90;;;;;;4986528;28;20216;-49
2022/01/09 11:49:54;;;;;;;1.33;1.07;;;3.00;99.90;;;;;;4982797;28;20165;-53
2022/01/09 11:52:24;;;;;;;0.93;0.87;;;2.90;99.90;;;;;;4991057;28;20176;-50
2022/01/09 11:54:52;;;;;;;0.90;0.90;;;2.90;99.90;;;;;;4992765;28;20209;-50
2022/01/09 11:57:35;;;;;;;1.00;0.80;;;2.90;99.90;;;;;;4992976;28;20193;-52
2022/01/09 12:00:01;;;;;;;3.37;1.30;;;2.80;99.90;;;;;;4991773;28;20954;-51
2022/01/09 12:02:29;;;;;;;1.00;0.90;;;2.90;99.90;;;;;;4992957;28;20193;-55
2022/01/09 12:04:56;;;;;;;2.07;0.93;;;2.80;99.90;;;;;;4990439;28;20184;-52
2022/01/09 12:07:34;;;;;;;2.80;1.10;;;2.90;99.90;;;;;;4992838;28;20189;-51
2022/01/09 12:10:01;;;;;;;1.37;1.00;;;2.90;99.90;;;;;;4991130;28;20247;-49
2022/01/09 12:12:37;;;;;;;1.50;1.40;;;2.90;99.90;;;;;;4975413;28;20544;-50
2022/01/09 12:15:08;;;;;;;3.00;1.23;;;2.90;99.90;;;;;;4992515;28;20185;-49
2022/01/09 12:17:37;;;;;;;1.40;1.07;;;2.90;99.90;;;;;;4990131;28;20200;-53
2022/01/09 12:20:12;;;;;;;1.30;0.80;;;2.90;99.90;;;;;;4992751;28;20173;-49
2022/01/09 12:22:48;;;;;;;1.20;1.10;;;2.90;99.90;;;;;;4990218;28;20267;-52
2022/01/09 12:25:22;;;;;;;1.27;1.10;;;3.00;99.90;;;;;;4988463;28;20165;-49
2022/01/09 12:27:53;;;;;;;2.40;1.13;;;3.00;99.90;;;;;;4992330;28;20180;-50
2022/01/09 12:33:16;;;;;;;2.40;1.13;;;3.10;99.90;;;;;;4991838;28;20212;-52
2022/01/09 12:35:50;;;;;;;1.07;0.90;;;3.10;99.90;;;;;;4990803;28;20685;-50
2022/01/09 12:38:18;;;;;;;1.67;1.33;;;3.10;99.90;;;;;;4990127;28;20220;-51
2022/01/09 12:40:45;;;;;;;2.53;1.20;;;3.10;99.90;;;;;;4992371;28;20681;-49
2022/01/09 12:43:12;;;;;;;1.13;1.03;;;3.10;99.90;;;;;;4992224;28;20213;-51
2022/01/09 12:45:43;;;;;;;2.30;1.50;;;3.20;99.90;;;;;;4991924;28;20173;-53
2022/01/09 12:48:19;;;;;;;1.67;1.40;;;3.20;99.90;;;;;;4975513;28;20658;-49
2022/01/09 12:50:46;;;;;;;1.43;1.30;;;3.20;99.90;;;;;;4992165;28;20165;-49
2022/01/09 12:53:17;;;;;;;1.97;1.23;;;3.10;99.90;;;;;;4992058;28;20236;-49
2022/01/09 12:56:13;;;;;;;1.17;1.00;;;3.20;99.90;;;;;;4986323;28;20174;-50
2022/01/09 12:58:49;;;;;;;1.40;1.20;;;3.20;99.90;;;;;;4893365;29;20586;-55
2022/01/09 13:01:16;;;;;;;2.00;1.70;;;3.20;99.90;;;;;;4896408;29;20184;-53
2022/01/09 13:03:44;;;;;;;2.53;1.33;;;3.20;99.90;;;;;;4893296;29;20220;-49
2022/01/09 13:06:13;;;;;;;2.63;1.07;;;3.10;99.90;;;;;;4893369;29;20255;-50
2022/01/09 13:08:42;;;;;;;2.10;1.20;;;3.20;99.90;;;;;;4893626;29;20722;-53